Blodgett Mills, NY

8:02 PM EST on December 22, 2014 (GMT -0500)
cortland | Change Station
CLOSE
Current Station
Personal Weather Station
Location: Cortland, NY
Elevation: 1148 ft
Nearby Weather Stations
Active Advisory: Special Statement

Elev 1148 ft 42.65 °N, 76.12 °W | Updated 14 minutes ago

Mostly Cloudy
Mostly Cloudy
35.5 °F
Feels Like 36 °F
N
0.0
Wind Variable Wind from NE
Gusts 2.0 mph

Today
High -- | Low -- °F
--% Chance of Precip.
Yesterday
High -- | Low -- °F
Precip. -- in
7:31 AM 4:34 PM
New Moon, 1% visible
Pressure 30.15 in
Visibility 10.0 miles
Clouds Overcast 1700 ft
Windchill 36 °F
Dew Point 31 °F
Humidity 83%
Rainfall 0.02 in
Snow Depth Not available.
UV 0 out of 12
Pollen .10 out of 12
Air Quality Not available.
Flu Activity Not available.
METAR KN03 230055Z AUTO 00000KT 10SM OVC017 02/00 A3015 RMK AO2

More Conditions Fewer Conditions

Pressure 30.15 in
Visibility 10.0 miles
Clouds Overcast 1700 ft
Windchill 36 °F
Dew Point 31 °F
Humidity 83%
Rainfall 0.02 in
Snow Depth Not available.
UV 0 out of 12
Pollen .10 out of 12
Air Quality Not available.
Flu Activity Not available.
METAR KN03 230055Z AUTO 00000KT 10SM OVC017 02/00 A3015 RMK AO2

More Conditions Fewer Conditions

10-Day Weather Forecast

Almanac

Astronomy

Dec. 22, 2014 Rise Set
Actual Time
Civil Twilight
Nautical Twilight
Astronomical Twilight
Moon
Length of Visible Light
Length of Day
Tomorrow will be .
, % of the Moon is Illuminated

Today's Extremes

State Highs State Lows

Community

WunderPhotos

Upload Photos

1,779,742 photos uploaded!

WunderBlogs® & News

Nearby

Air Quality

  Air Quality AQ Index Pollutant
Not available.

Snow Depth

Station Depth Elevation

Earthquake Activity

City Distance Mag. Time & Date
Minimum magnitude displayed is 2.5.

Coastal Water Temperatures

Place Temperature

Nearby Weather Stations